Edgard, LA (70049)

11:13 AM CDT en Octubre 01, 2014 (GMT -0500)
KA5ZCI River Forest | Change Station
CLOSE
Current Station
Estación meteorológica personal
Location: Laplace, LA
Altura: 6 ft
Estaciones meteorológicas cercanas

Alt 6 ft 30.06 °N, 90.45 °W | Updated 11 seconds ago

Nublado
Nublado
80.2 ° F
Sensación térmica 86 ° F
N
0.0
Viento Variable Viento desde SE
Gusts 0.2 mph

Hoy
Alta -- | Baja -- ° F
--% Posibilidad de precipitaciones
Ayer
Alta -- | Baja -- ° F
Precip. -- pul
6:55 AM 6:47 PM
Creciente, 49% visible
Presión 29.97 pul
Visibilidad 10.0 Millas
Nubes Nubes dispersas 1900 ft
Muy nublado 3300 ft
Muy nublado 7000 ft
Nublado 14000 ft
Índice de calor 86 ° F
Punto de rocío 77 ° F
Humedad 90%
Precipitaciones 0.00 pul
Espesor de la nieve No disponible.
UV 2 de una escala de 12
Polen 6.70 de una escala de 12
Ozono Buena
PM2.5 Buena
Flu Activity No disponible.
METAR KMSY 011553Z 13009KT 10SM -RA SCT019 BKN033 BKN070 OVC140 27/22 A2996 RMK AO2 RAB52 SLP147 P0000 T02720222

More Conditions Fewer Conditions

Presión 29.97 pul
Visibilidad 10.0 Millas
Nubes Nubes dispersas 1900 ft
Muy nublado 3300 ft
Muy nublado 7000 ft
Nublado 14000 ft
Índice de calor 86 ° F
Punto de rocío 77 ° F
Humedad 90%
Precipitaciones 0.00 pul
Espesor de la nieve No disponible.
UV 2 de una escala de 12
Polen 6.70 de una escala de 12
Ozono Buena
PM2.5 Buena
Flu Activity No disponible.
METAR KMSY 011553Z 13009KT 10SM -RA SCT019 BKN033 BKN070 OVC140 27/22 A2996 RMK AO2 RAB52 SLP147 P0000 T02720222

More Conditions Fewer Conditions

10-Day Weather Forecast

Almanac

Astronomía

Oct. 01, 2014 Salida Puesta
Hora real 6:55 AM CDT 6:47 PM CDT
Crepúsculo civil 6:31 AM CDT 7:11 PM CDT
Crepúsculo náutico 6:03 AM CDT 7:39 PM CDT
Crepúsculo astronómico 5:36 AM CDT 8:06 PM CDT
Luna 1:38 PM CDT Sin puesta de luna
Horas de luz 12h 39m
Horas de luz
11h 52m
Tomorrow will be 1m 48s shorter.
Creciente, 49% of the Moon is Illuminated
Hoy
Creciente
Oct 1
Cuarto creciente
Oct 8
Luna llena
Oct 15
Cuarto menguante
Oct 23
Nueva

Extremos de hoy

Máximos del estado Bajos del estado

Community

WunderPhotos

Upload Photos

1,757,976 ¡fotos cargadas!

WunderBlogs® & News

Nearby

Calidad del aire

  Calidad del aire Índice AQ Contaminante
Ayer Buena
OZONE
Ayer Buena
PM2.5
Real Buena
PM2.5
Real Buena
OZONE
Miércoles Buena
OZONE
Miércoles Buena
PM2.5
Jueves Buena
PM2.5
Jueves Buena
OZONE

Grosos de nieve

Estación Profundido Altura
No tenemos constancia de nieve nueva.

Actividad de terremotos

Ciudad Distance Mag. Tiempo y dato
No hay informes recientes de la actividad sísmica.
Magnitud mínima muestra es 2,5.

Temperaturas de aguas costeras

Lugar Temperatura
New Canal, LA 77.0 ° F
Shell Beach, LA 75.0 ° F
Bayou Gauche, LA 81.0 ° F

Estaciones meteorológicas cercanas